Time;durP1;ratioP1;P1;durP2;ratioP2;P2;SDS_P1;SDS_P2;PMS_P1;PMS_P2;Temp;Humidity;BMP_temperature;BMP_pressure;BME280_temperature;BME280_humidity;BME280_pressure;Samples;Min_cycle;Max_cycle;Signal;HPM_P1;HPM_P2
2023/01/06 00:00:23;;;;;;;11.05;5.53;;;;;;;;;;5051982;28;20068;-70
2023/01/06 00:02:49;;;;;;;11.07;4.70;;;;;;;;;;5050844;28;20056;-67
2023/01/06 00:05:16;;;;;;;13.13;5.75;;;;;;;;;;5036710;28;20041;-68
2023/01/06 00:07:43;;;;;;;23.65;12.27;;;;;;;;;;5051687;28;20033;-69
2023/01/06 00:10:10;;;;;;;8.75;3.78;;;;;;;;;;5053907;28;20069;-69
2023/01/06 00:12:37;;;;;;;12.80;2.35;;;;;;;;;;5048569;28;20044;-68
2023/01/06 00:15:04;;;;;;;7.35;2.55;;;;;;;;;;5045698;28;20045;-69
2023/01/06 00:17:31;;;;;;;7.30;2.35;;;;;;;;;;5063124;28;20067;-69
2023/01/06 00:19:57;;;;;;;11.27;2.83;;;;;;;;;;5051916;28;20087;-68
2023/01/06 00:22:24;;;;;;;12.25;2.50;;;;;;;;;;5063679;28;20041;-69
2023/01/06 00:24:51;;;;;;;7.10;2.35;;;;;;;;;;5051075;28;20076;-66
2023/01/06 00:27:17;;;;;;;6.55;2.05;;;;;;;;;;5043899;28;20258;-68
2023/01/06 00:29:44;;;;;;;10.63;2.78;;;;;;;;;;5050243;28;20029;-67
2023/01/06 00:32:11;;;;;;;5.97;2.30;;;;;;;;;;5052805;28;20043;-67
2023/01/06 00:34:38;;;;;;;14.50;4.05;;;;;;;;;;5050959;28;20073;-66
2023/01/06 00:37:04;;;;;;;9.07;2.92;;;;;;;;;;5051603;28;20041;-67
2023/01/06 00:39:31;;;;;;;7.28;2.80;;;;;;;;;;5049925;28;20041;-67
2023/01/06 00:42:04;;;;;;;8.82;3.08;;;;;;;;;;5053729;28;20037;-69
2023/01/06 00:44:35;;;;;;;11.45;3.45;;;;;;;;;;5050991;28;20099;-67
2023/01/06 00:47:02;;;;;;;4.55;2.25;;;;;;;;;;5053149;28;20415;-68
2023/01/06 00:49:28;;;;;;;5.68;2.72;;;;;;;;;;5047557;28;20049;-68
2023/01/06 00:51:55;;;;;;;12.63;3.03;;;;;;;;;;5050329;28;20037;-68
2023/01/06 00:54:22;;;;;;;9.35;2.90;;;;;;;;;;5048901;28;20049;-68
2023/01/06 00:56:50;;;;;;;7.57;2.80;;;;;;;;;;5048369;28;20870;-71
2023/01/06 00:59:18;;;;;;;6.63;3.05;;;;;;;;;;5034871;28;20076;-71
2023/01/06 01:01:45;;;;;;;8.68;4.10;;;;;;;;;;5036542;28;20490;-71
2023/01/06 01:04:12;;;;;;;11.57;3.22;;;;;;;;;;5028311;28;20048;-73
2023/01/06 01:06:41;;;;;;;12.63;3.65;;;;;;;;;;5019181;28;20043;-68
2023/01/06 01:09:12;;;;;;;8.15;3.38;;;;;;;;;;5031502;28;20204;-72
2023/01/06 01:14:23;;;;;;;5.97;3.22;;;;;;;;;;5027647;28;20778;-70
2023/01/06 01:16:51;;;;;;;6.80;2.78;;;;;;;;;;5028631;28;20637;-71
2023/01/06 01:19:17;;;;;;;6.63;3.60;;;;;;;;;;5029261;28;21660;-70
2023/01/06 01:21:44;;;;;;;7.47;3.42;;;;;;;;;;5027571;28;20049;-67
2023/01/06 01:24:11;;;;;;;6.35;2.75;;;;;;;;;;5026644;28;20052;-67
2023/01/06 01:26:38;;;;;;;8.32;3.10;;;;;;;;;;5026807;28;20033;-68
2023/01/06 01:29:05;;;;;;;7.80;3.28;;;;;;;;;;5027804;28;20041;-71
2023/01/06 01:31:32;;;;;;;6.43;2.80;;;;;;;;;;5026238;28;20383;-66
2023/01/06 01:33:59;;;;;;;6.57;2.95;;;;;;;;;;5027999;28;20114;-67
2023/01/06 01:36:26;;;;;;;13.05;2.80;;;;;;;;;;5028356;28;20103;-69
2023/01/06 01:38:53;;;;;;;10.40;3.60;;;;;;;;;;5030695;28;20051;-68
2023/01/06 01:41:21;;;;;;;6.88;3.05;;;;;;;;;;5047134;28;20587;-68
2023/01/06 01:43:50;;;;;;;7.25;3.88;;;;;;;;;;5033946;28;20089;-71
2023/01/06 01:46:19;;;;;;;12.48;2.90;;;;;;;;;;5028672;28;20041;-70
2023/01/06 01:48:46;;;;;;;8.77;2.90;;;;;;;;;;5035117;28;20160;-70
2023/01/06 01:51:14;;;;;;;7.50;3.30;;;;;;;;;;5041348;28;20043;-71
2023/01/06 01:53:46;;;;;;;7.00;2.88;;;;;;;;;;5028968;28;20052;-70
2023/01/06 01:56:14;;;;;;;8.48;3.05;;;;;;;;;;5022597;28;20036;-69
2023/01/06 01:59:04;;;;;;;6.60;2.70;;;;;;;;;;5028189;28;20045;-67
2023/01/06 02:01:31;;;;;;;10.60;2.90;;;;;;;;;;5021022;28;20037;-68
2023/01/06 02:03:58;;;;;;;8.32;2.75;;;;;;;;;;5027097;28;20126;-71
2023/01/06 02:06:26;;;;;;;8.20;2.65;;;;;;;;;;5011235;28;20888;-67
2023/01/06 02:08:52;;;;;;;8.50;3.28;;;;;;;;;;5029611;28;20040;-68
2023/01/06 02:11:19;;;;;;;8.52;3.03;;;;;;;;;;5017839;28;20543;-70
2023/01/06 02:13:46;;;;;;;8.13;3.10;;;;;;;;;;5028037;28;20072;-67
2023/01/06 02:16:22;;;;;;;5.85;2.70;;;;;;;;;;5025513;28;20037;-67
2023/01/06 02:18:59;;;;;;;12.07;2.70;;;;;;;;;;5025909;28;20110;-69
2023/01/06 02:21:31;;;;;;;10.20;2.47;;;;;;;;;;5026270;28;20096;-68
2023/01/06 02:24:16;;;;;;;7.90;2.58;;;;;;;;;;5029135;28;20036;-69
2023/01/06 02:26:45;;;;;;;4.80;2.47;;;;;;;;;;5020462;28;20045;-68
2023/01/06 02:29:27;;;;;;;5.50;2.80;;;;;;;;;;5022604;28;20041;-68
2023/01/06 02:31:56;;;;;;;5.38;2.58;;;;;;;;;;5029676;28;20041;-68
2023/01/06 02:34:29;;;;;;;5.35;2.70;;;;;;;;;;5022408;28;20512;-68
2023/01/06 02:37:07;;;;;;;6.55;2.58;;;;;;;;;;5024224;28;20343;-69
2023/01/06 02:40:12;;;;;;;13.45;2.92;;;;;;;;;;5024828;28;20037;-67
2023/01/06 02:42:52;;;;;;;4.78;2.58;;;;;;;;;;5022131;28;20056;-67
2023/01/06 02:45:34;;;;;;;4.97;2.58;;;;;;;;;;5018988;28;20053;-68
2023/01/06 02:48:03;;;;;;;8.35;4.55;;;;;;;;;;5030056;28;20045;-69
2023/01/06 02:50:41;;;;;;;9.50;3.53;;;;;;;;;;5025570;28;20029;-71
2023/01/06 02:53:17;;;;;;;6.25;3.08;;;;;;;;;;5027080;28;20040;-68
2023/01/06 02:55:52;;;;;;;11.15;2.80;;;;;;;;;;5024808;28;20064;-69
2023/01/06 02:58:19;;;;;;;9.60;4.47;;;;;;;;;;5027839;28;20037;-68
2023/01/06 03:01:04;;;;;;;7.78;3.10;;;;;;;;;;5031585;28;20029;-68
2023/01/06 03:03:33;;;;;;;7.38;3.65;;;;;;;;;;5032211;28;20458;-65
2023/01/06 03:06:05;;;;;;;6.70;3.70;;;;;;;;;;5029436;28;20041;-66
2023/01/06 03:08:32;;;;;;;9.00;3.58;;;;;;;;;;5030591;28;20049;-65
2023/01/06 03:11:00;;;;;;;6.43;3.13;;;;;;;;;;5031686;28;20060;-66
2023/01/06 03:13:30;;;;;;;12.63;5.25;;;;;;;;;;5032118;28;20065;-67
2023/01/06 03:15:56;;;;;;;14.20;7.35;;;;;;;;;;5030191;28;20501;-66
2023/01/06 03:18:23;;;;;;;24.58;13.68;;;;;;;;;;5032030;28;20053;-66
2023/01/06 03:20:51;;;;;;;13.80;4.88;;;;;;;;;;5036953;28;20103;-66
2023/01/06 03:23:18;;;;;;;30.98;16.25;;;;;;;;;;5033186;28;20045;-66
2023/01/06 03:25:44;;;;;;;41.83;23.13;;;;;;;;;;5031416;28;20049;-65
2023/01/06 03:28:11;;;;;;;20.10;9.77;;;;;;;;;;5034653;28;20727;-65
2023/01/06 03:30:51;;;;;;;11.18;5.13;;;;;;;;;;5031368;28;20041;-65
2023/01/06 03:33:23;;;;;;;31.42;14.50;;;;;;;;;;5033019;28;20048;-66
2023/01/06 03:35:52;;;;;;;12.13;4.93;;;;;;;;;;5030810;28;20321;-67
2023/01/06 03:38:25;;;;;;;6.68;2.92;;;;;;;;;;5032553;28;20041;-67
2023/01/06 03:41:00;;;;;;;9.20;2.70;;;;;;;;;;5030003;28;20084;-67
2023/01/06 03:43:53;;;;;;;5.07;2.22;;;;;;;;;;5030793;28;20046;-71
2023/01/06 03:46:29;;;;;;;9.65;3.20;;;;;;;;;;5029393;28;20045;-73
2023/01/06 03:49:02;;;;;;;6.65;3.30;;;;;;;;;;5029746;28;20044;-68
2023/01/06 03:51:47;;;;;;;7.63;3.30;;;;;;;;;;5029521;28;20037;-69
2023/01/06 03:54:14;;;;;;;6.88;3.22;;;;;;;;;;5030989;28;20782;-68
2023/01/06 03:56:45;;;;;;;4.25;2.17;;;;;;;;;;5028905;28;20045;-68
2023/01/06 03:59:18;;;;;;;9.20;2.85;;;;;;;;;;5031947;28;20602;-68
2023/01/06 04:01:44;;;;;;;;;;;;;;;;;;5035960;28;20088;-70
2023/01/06 04:04:11;;;;;;;6.30;2.65;;;;;;;;;;5032511;28;19920;-68
2023/01/06 04:06:57;;;;;;;15.75;7.47;;;;;;;;;;5056768;28;20546;-69
2023/01/06 04:09:24;;;;;;;13.32;5.55;;;;;;;;;;5057423;28;20074;-68
2023/01/06 04:14:41;;;;;;;20.77;10.77;;;;;;;;;;5061752;28;20044;-71
2023/01/06 04:17:08;;;;;;;22.05;9.88;;;;;;;;;;5067452;28;20079;-70
2023/01/06 04:19:34;;;;;;;43.13;18.77;;;;;;;;;;5062821;28;20049;-67
2023/01/06 04:22:01;;;;;;;78.43;31.75;;;;;;;;;;5059782;28;20036;-68
2023/01/06 04:24:28;;;;;;;71.03;29.92;;;;;;;;;;5060440;28;20040;-67
2023/01/06 04:26:54;;;;;;;35.17;16.63;;;;;;;;;;5060205;28;21050;-66
2023/01/06 04:29:21;;;;;;;11.63;5.45;;;;;;;;;;5062533;28;20645;-66
2023/01/06 04:31:48;;;;;;;9.85;3.05;;;;;;;;;;5063245;28;20052;-67
2023/01/06 04:34:15;;;;;;;8.57;3.22;;;;;;;;;;5063867;28;20413;-68
2023/01/06 04:36:42;;;;;;;7.63;2.47;;;;;;;;;;5063508;28;20082;-69
2023/01/06 04:39:08;;;;;;;8.52;3.42;;;;;;;;;;5048773;28;20131;-68
2023/01/06 04:41:35;;;;;;;7.10;2.88;;;;;;;;;;5030611;28;20052;-67
2023/01/06 04:44:02;;;;;;;10.70;5.65;;;;;;;;;;5028743;28;20367;-67
2023/01/06 04:46:28;;;;;;;6.57;3.03;;;;;;;;;;5027840;28;20136;-69
2023/01/06 04:48:55;;;;;;;14.25;5.65;;;;;;;;;;5027527;28;20041;-68
2023/01/06 04:51:22;;;;;;;12.75;5.50;;;;;;;;;;5028532;28;20041;-68
2023/01/06 04:53:48;;;;;;;16.17;7.03;;;;;;;;;;5028166;28;20218;-66
2023/01/06 04:56:15;;;;;;;7.82;4.47;;;;;;;;;;5027206;28;20037;-67
2023/01/06 04:58:42;;;;;;;9.32;3.70;;;;;;;;;;5029420;28;20116;-67
2023/01/06 05:01:10;;;;;;;17.42;6.05;;;;;;;;;;5026957;28;20037;-67
2023/01/06 05:03:37;;;;;;;15.00;6.65;;;;;;;;;;5027048;28;20502;-67
2023/01/06 05:06:04;;;;;;;13.57;6.82;;;;;;;;;;5027788;28;20041;-67
2023/01/06 05:08:31;;;;;;;15.52;5.38;;;;;;;;;;5026910;28;20721;-68
2023/01/06 05:11:02;;;;;;;17.05;6.38;;;;;;;;;;5027885;28;20132;-68
2023/01/06 05:13:29;;;;;;;16.77;6.82;;;;;;;;;;5030922;28;20045;-67
2023/01/06 05:15:56;;;;;;;17.17;6.78;;;;;;;;;;5028061;28;20073;-67
2023/01/06 05:18:23;;;;;;;19.42;8.65;;;;;;;;;;5031202;28;20049;-69
2023/01/06 05:20:53;;;;;;;15.15;7.05;;;;;;;;;;5030876;28;20123;-67
2023/01/06 05:23:21;;;;;;;14.60;5.18;;;;;;;;;;5026291;28;20132;-67
2023/01/06 05:25:50;;;;;;;21.40;7.22;;;;;;;;;;5023141;28;20162;-67
2023/01/06 05:28:17;;;;;;;19.17;5.43;;;;;;;;;;5044480;28;20045;-66
2023/01/06 05:30:43;;;;;;;8.88;4.38;;;;;;;;;;5030669;28;20497;-67
2023/01/06 05:33:10;;;;;;;14.20;4.95;;;;;;;;;;5031103;28;20049;-69
2023/01/06 05:35:37;;;;;;;14.35;6.35;;;;;;;;;;5027950;28;20032;-68
2023/01/06 05:38:04;;;;;;;22.88;9.93;;;;;;;;;;5028073;28;20060;-69
2023/01/06 05:40:31;;;;;;;17.48;6.47;;;;;;;;;;5030170;28;20113;-69
2023/01/06 05:42:58;;;;;;;18.77;7.57;;;;;;;;;;5043116;28;20124;-70
2023/01/06 05:45:25;;;;;;;12.27;6.38;;;;;;;;;;5028389;28;20054;-68
2023/01/06 05:47:52;;;;;;;8.75;4.13;;;;;;;;;;5029936;28;20041;-68
2023/01/06 05:50:19;;;;;;;8.27;4.13;;;;;;;;;;5035045;28;20044;-69
2023/01/06 05:52:45;;;;;;;7.03;3.90;;;;;;;;;;5029125;28;20044;-69
2023/01/06 05:55:12;;;;;;;7.07;3.47;;;;;;;;;;5029910;28;20044;-68
2023/01/06 05:57:38;;;;;;;9.43;4.25;;;;;;;;;;5031143;28;20061;-68
2023/01/06 06:00:05;;;;;;;8.80;4.00;;;;;;;;;;5031398;28;20033;-69
2023/01/06 06:02:32;;;;;;;8.48;3.47;;;;;;;;;;5029085;28;20076;-69
2023/01/06 06:04:59;;;;;;;10.48;5.00;;;;;;;;;;5028848;28;20051;-69
2023/01/06 06:07:25;;;;;;;8.68;4.22;;;;;;;;;;5027862;28;20038;-68
2023/01/06 06:09:52;;;;;;;16.38;4.05;;;;;;;;;;5030334;28;20038;-68
2023/01/06 06:12:18;;;;;;;13.68;3.58;;;;;;;;;;5030713;28;20120;-68
2023/01/06 06:14:45;;;;;;;14.35;5.60;;;;;;;;;;5029746;28;20040;-69
2023/01/06 06:17:12;;;;;;;7.05;3.53;;;;;;;;;;5030358;28;20036;-67
2023/01/06 06:19:38;;;;;;;8.55;3.80;;;;;;;;;;5029836;28;20033;-67
2023/01/06 06:22:05;;;;;;;14.55;4.35;;;;;;;;;;5028329;28;20041;-68
2023/01/06 06:24:32;;;;;;;11.45;5.03;;;;;;;;;;5029018;28;20623;-67
2023/01/06 06:26:58;;;;;;;14.43;5.00;;;;;;;;;;5031101;28;20057;-68
2023/01/06 06:29:25;;;;;;;13.10;4.40;;;;;;;;;;5033187;28;20091;-68
2023/01/06 06:31:52;;;;;;;13.07;4.72;;;;;;;;;;5035823;28;20045;-66
2023/01/06 06:34:18;;;;;;;11.88;4.07;;;;;;;;;;5035702;28;20091;-66
2023/01/06 06:36:45;;;;;;;17.17;4.85;;;;;;;;;;5038341;28;20107;-66
2023/01/06 06:39:12;;;;;;;11.40;3.85;;;;;;;;;;5031493;28;20041;-68
2023/01/06 06:41:38;;;;;;;15.07;3.60;;;;;;;;;;5038550;28;20126;-67
2023/01/06 06:44:05;;;;;;;9.32;3.50;;;;;;;;;;5036641;28;20142;-68
2023/01/06 06:46:32;;;;;;;8.13;3.22;;;;;;;;;;5033185;28;20409;-68
2023/01/06 06:48:58;;;;;;;8.88;3.50;;;;;;;;;;5030812;28;20057;-67
2023/01/06 06:51:25;;;;;;;6.88;3.33;;;;;;;;;;5031598;28;20081;-67
2023/01/06 06:53:52;;;;;;;6.47;2.78;;;;;;;;;;5031736;28;20042;-67
2023/01/06 06:56:19;;;;;;;6.55;3.00;;;;;;;;;;5033155;28;20065;-68
2023/01/06 06:58:46;;;;;;;6.45;3.10;;;;;;;;;;5034810;28;20481;-68
2023/01/06 07:01:14;;;;;;;11.15;2.92;;;;;;;;;;5027784;28;20088;-70
2023/01/06 07:03:41;;;;;;;8.77;2.47;;;;;;;;;;5028157;28;20135;-69
2023/01/06 07:06:10;;;;;;;6.82;2.22;;;;;;;;;;5033619;28;20048;-67
2023/01/06 07:08:37;;;;;;;8.75;2.50;;;;;;;;;;5036364;28;21164;-68
2023/01/06 07:11:03;;;;;;;13.73;2.85;;;;;;;;;;5044490;28;20044;-67
2023/01/06 07:13:30;;;;;;;6.38;2.33;;;;;;;;;;5035847;28;20040;-68
2023/01/06 07:15:57;;;;;;;6.22;2.10;;;;;;;;;;5049754;28;20041;-68
2023/01/06 07:18:23;;;;;;;5.22;1.90;;;;;;;;;;5048115;28;20032;-68
2023/01/06 07:20:52;;;;;;;5.85;2.13;;;;;;;;;;5047679;28;20130;-68
2023/01/06 07:23:19;;;;;;;4.90;1.90;;;;;;;;;;5043287;28;20055;-68
2023/01/06 07:25:46;;;;;;;4.80;2.05;;;;;;;;;;5032071;28;20148;-67
2023/01/06 07:28:12;;;;;;;7.38;2.03;;;;;;;;;;5042904;28;20041;-68
2023/01/06 07:30:39;;;;;;;4.13;1.70;;;;;;;;;;5041848;28;20044;-67
2023/01/06 07:33:06;;;;;;;4.30;1.83;;;;;;;;;;5042980;28;20060;-67
2023/01/06 07:35:32;;;;;;;6.35;1.83;;;;;;;;;;5038855;28;20116;-68
2023/01/06 07:38:03;;;;;;;4.13;1.70;;;;;;;;;;5019106;28;20494;-69
2023/01/06 07:40:30;;;;;;;5.40;2.22;;;;;;;;;;5039696;28;20041;-69
2023/01/06 07:42:56;;;;;;;6.40;2.63;;;;;;;;;;5043879;28;20557;-67
2023/01/06 07:45:23;;;;;;;6.45;1.90;;;;;;;;;;5043590;28;20406;-69
2023/01/06 07:47:49;;;;;;;6.68;2.20;;;;;;;;;;5048184;28;20044;-67
2023/01/06 07:50:16;;;;;;;4.90;2.10;;;;;;;;;;5063292;28;20037;-67
2023/01/06 07:52:43;;;;;;;5.15;1.77;;;;;;;;;;5026998;28;20037;-67
2023/01/06 07:55:09;;;;;;;5.45;2.10;;;;;;;;;;5028268;28;20056;-67
2023/01/06 07:57:36;;;;;;;3.42;1.65;;;;;;;;;;5029122;28;20532;-67
2023/01/06 08:00:03;;;;;;;5.53;1.90;;;;;;;;;;5028100;28;20662;-67
2023/01/06 08:02:30;;;;;;;3.22;1.50;;;;;;;;;;5029080;28;20148;-66
2023/01/06 08:04:57;;;;;;;6.00;2.10;;;;;;;;;;5026514;28;20037;-68
2023/01/06 08:07:23;;;;;;;4.80;1.88;;;;;;;;;;5025370;28;20119;-66
2023/01/06 08:09:50;;;;;;;7.85;1.67;;;;;;;;;;5029943;28;20045;-66
2023/01/06 08:12:17;;;;;;;7.93;1.90;;;;;;;;;;5036173;28;20130;-67
2023/01/06 08:14:44;;;;;;;4.63;1.80;;;;;;;;;;5046151;28;20048;-67
2023/01/06 08:17:10;;;;;;;4.80;2.35;;;;;;;;;;5028099;28;20047;-66
2023/01/06 08:19:37;;;;;;;6.15;2.17;;;;;;;;;;5028035;28;20080;-67
2023/01/06 08:22:04;;;;;;;4.85;2.15;;;;;;;;;;5027675;28;20719;-66
2023/01/06 08:24:30;;;;;;;4.85;1.55;;;;;;;;;;5026222;28;20933;-69
2023/01/06 08:26:57;;;;;;;3.97;2.00;;;;;;;;;;5028753;28;20056;-68
2023/01/06 08:29:24;;;;;;;7.05;2.28;;;;;;;;;;5027710;28;20076;-66
2023/01/06 08:31:51;;;;;;;7.32;2.00;;;;;;;;;;5027125;28;20544;-67
2023/01/06 08:34:18;;;;;;;4.88;2.30;;;;;;;;;;5027062;28;20107;-67
2023/01/06 08:36:45;;;;;;;7.93;3.00;;;;;;;;;;5038886;28;20041;-68
2023/01/06 08:39:13;;;;;;;6.88;2.45;;;;;;;;;;5047185;28;20376;-68
2023/01/06 08:41:40;;;;;;;5.43;2.53;;;;;;;;;;5039249;28;20070;-68
2023/01/06 08:44:07;;;;;;;7.53;2.17;;;;;;;;;;5047156;28;20060;-67
2023/01/06 08:46:33;;;;;;;5.60;2.33;;;;;;;;;;5047065;28;20080;-68
2023/01/06 08:49:03;;;;;;;7.68;2.40;;;;;;;;;;5047342;28;20053;-67
2023/01/06 08:51:49;;;;;;;7.80;2.72;;;;;;;;;;5047286;28;20049;-68
2023/01/06 08:54:16;;;;;;;6.40;2.10;;;;;;;;;;5063471;28;20934;-68
2023/01/06 08:56:43;;;;;;;5.75;2.50;;;;;;;;;;5064173;28;20051;-67
2023/01/06 08:59:12;;;;;;;5.32;2.50;;;;;;;;;;5061741;28;20048;-66
2023/01/06 09:01:38;;;;;;;5.28;2.25;;;;;;;;;;5064542;28;20380;-68
2023/01/06 09:04:06;;;;;;;3.85;1.85;;;;;;;;;;5063840;28;20036;-67
2023/01/06 09:06:33;;;;;;;3.20;1.30;;;;;;;;;;5052285;28;20048;-68
2023/01/06 09:09:00;;;;;;;3.45;1.45;;;;;;;;;;5064578;28;20045;-69
2023/01/06 09:11:27;;;;;;;4.85;1.20;;;;;;;;;;5065878;28;20757;-69
2023/01/06 09:13:54;;;;;;;3.88;1.00;;;;;;;;;;5063650;28;20123;-67
2023/01/06 09:16:22;;;;;;;3.28;1.13;;;;;;;;;;5063954;28;20758;-67
2023/01/06 09:18:50;;;;;;;4.28;1.20;;;;;;;;;;5061386;28;20599;-67
2023/01/06 09:21:19;;;;;;;3.08;1.13;;;;;;;;;;5058540;28;20044;-66
2023/01/06 09:23:46;;;;;;;2.22;0.82;;;;;;;;;;5062953;28;20206;-66
2023/01/06 09:26:14;;;;;;;3.00;0.82;;;;;;;;;;5048895;28;20774;-67
2023/01/06 09:28:40;;;;;;;3.38;1.08;;;;;;;;;;5046505;28;20056;-66
2023/01/06 09:31:07;;;;;;;4.35;1.17;;;;;;;;;;5048432;28;20045;-67
2023/01/06 09:33:34;;;;;;;2.58;0.90;;;;;;;;;;5046690;28;20041;-67
2023/01/06 09:36:01;;;;;;;2.25;0.82;;;;;;;;;;5047803;28;20048;-67
2023/01/06 09:38:29;;;;;;;3.78;0.95;;;;;;;;;;5047465;28;20040;-68
2023/01/06 09:40:55;;;;;;;2.47;0.82;;;;;;;;;;5061696;28;20055;-68
2023/01/06 09:43:31;;;;;;;1.95;0.70;;;;;;;;;;5045937;28;20501;-67
2023/01/06 09:46:02;;;;;;;2.78;1.00;;;;;;;;;;5045870;28;20068;-67
2023/01/06 09:48:33;;;;;;;2.17;0.70;;;;;;;;;;5045169;28;20079;-68
2023/01/06 09:51:01;;;;;;;2.78;0.90;;;;;;;;;;5046175;28;20040;-69
2023/01/06 09:53:30;;;;;;;2.08;0.73;;;;;;;;;;5044778;28;20044;-67
2023/01/06 09:55:59;;;;;;;3.00;1.00;;;;;;;;;;5046921;28;20040;-68
2023/01/06 09:58:32;;;;;;;3.97;1.02;;;;;;;;;;5044883;28;20059;-67
2023/01/06 10:01:03;;;;;;;3.15;1.02;;;;;;;;;;5047889;28;20036;-68
2023/01/06 10:03:31;;;;;;;2.88;0.80;;;;;;;;;;5060385;28;20139;-68
2023/01/06 10:06:09;;;;;;;2.60;0.93;;;;;;;;;;5043983;28;20163;-69
2023/01/06 10:09:08;;;;;;;5.05;0.73;;;;;;;;;;5020113;28;20850;-70
2023/01/06 10:11:41;;;;;;;2.15;0.63;;;;;;;;;;5040561;28;20152;-70
2023/01/06 10:14:15;;;;;;;1.35;0.45;;;;;;;;;;5053833;28;20394;-69
2023/01/06 10:16:53;;;;;;;2.08;0.60;;;;;;;;;;5035842;28;20065;-68
2023/01/06 10:19:38;;;;;;;2.72;0.70;;;;;;;;;;5036923;28;20041;-69
2023/01/06 10:22:08;;;;;;;2.75;0.60;;;;;;;;;;5024878;28;20406;-70
2023/01/06 10:24:44;;;;;;;2.53;0.88;;;;;;;;;;5022204;28;20045;-69
2023/01/06 10:27:20;;;;;;;2.30;0.60;;;;;;;;;;5025157;28;20049;-69
2023/01/06 10:29:48;;;;;;;1.67;0.50;;;;;;;;;;5049139;28;20048;-69
2023/01/06 10:32:18;;;;;;;1.75;0.55;;;;;;;;;;5042235;28;20457;-70
2023/01/06 10:34:47;;;;;;;1.88;0.60;;;;;;;;;;5040144;28;20036;-70
2023/01/06 10:37:20;;;;;;;4.15;0.85;;;;;;;;;;5012421;28;20126;-71
2023/01/06 10:40:11;;;;;;;2.30;0.70;;;;;;;;;;5037217;28;20033;-69
2023/01/06 10:43:01;;;;;;;1.42;0.50;;;;;;;;;;4998986;28;20041;-71
2023/01/06 10:45:37;;;;;;;1.30;0.50;;;;;;;;;;5022099;28;20044;-69
2023/01/06 10:48:05;;;;;;;2.50;0.70;;;;;;;;;;5072594;28;20032;-68
2023/01/06 10:50:35;;;;;;;2.22;0.70;;;;;;;;;;5063387;28;20125;-68
2023/01/06 10:53:03;;;;;;;1.63;0.60;;;;;;;;;;5038564;28;20040;-70
2023/01/06 10:55:59;;;;;;;1.90;0.60;;;;;;;;;;5044310;28;20036;-71
2023/01/06 10:58:33;;;;;;;1.40;0.45;;;;;;;;;;5036666;28;20033;-69
2023/01/06 11:01:29;;;;;;;1.33;0.52;;;;;;;;;;4990411;28;20037;-69
2023/01/06 11:04:10;;;;;;;2.50;0.60;;;;;;;;;;4972010;28;20086;-69
2023/01/06 11:06:44;;;;;;;1.70;0.50;;;;;;;;;;4976343;28;21771;-69
2023/01/06 11:09:29;;;;;;;1.92;0.50;;;;;;;;;;4991497;28;20065;-70
2023/01/06 11:11:57;;;;;;;1.73;0.50;;;;;;;;;;4981421;28;20047;-70
2023/01/06 11:14:32;;;;;;;1.50;0.50;;;;;;;;;;5003658;28;20505;-69
2023/01/06 11:16:59;;;;;;;1.73;0.50;;;;;;;;;;5008235;28;20050;-70
2023/01/06 11:19:38;;;;;;;1.10;0.40;;;;;;;;;;5011579;28;20037;-69
2023/01/06 11:22:09;;;;;;;1.92;0.50;;;;;;;;;;5015032;28;20038;-71
2023/01/06 11:24:48;;;;;;;1.30;0.40;;;;;;;;;;4993028;28;20029;-69
2023/01/06 11:27:16;;;;;;;1.45;0.47;;;;;;;;;;5008999;28;20489;-69
2023/01/06 11:29:43;;;;;;;2.35;0.77;;;;;;;;;;4985774;28;20909;-72
2023/01/06 11:32:29;;;;;;;1.55;0.57;;;;;;;;;;4969577;28;20497;-70
2023/01/06 11:35:00;;;;;;;1.58;0.50;;;;;;;;;;4972486;28;20586;-69
2023/01/06 11:37:34;;;;;;;1.40;0.40;;;;;;;;;;4955400;28;20116;-69
2023/01/06 11:40:13;;;;;;;1.73;0.50;;;;;;;;;;5014316;28;20060;-69
2023/01/06 11:42:40;;;;;;;1.83;0.50;;;;;;;;;;4984603;28;20084;-69
2023/01/06 11:45:30;;;;;;;1.45;0.45;;;;;;;;;;5011878;28;20641;-68
2023/01/06 11:47:57;;;;;;;1.42;0.50;;;;;;;;;;5000605;28;20041;-66
2023/01/06 11:50:24;;;;;;;0.80;0.40;;;;;;;;;;5015580;28;20511;-68
2023/01/06 11:53:01;;;;;;;0.95;0.40;;;;;;;;;;5010925;28;20670;-70
2023/01/06 11:55:29;;;;;;;1.70;0.50;;;;;;;;;;5005255;28;20648;-69
2023/01/06 11:57:56;;;;;;;0.85;0.40;;;;;;;;;;5008154;28;20034;-69
2023/01/06 12:00:36;;;;;;;1.27;0.40;;;;;;;;;;5003952;28;20045;-70
2023/01/06 12:03:22;;;;;;;1.52;0.45;;;;;;;;;;5030856;28;20132;-70
2023/01/06 12:06:28;;;;;;;1.35;0.40;;;;;;;;;;4994664;28;21591;-71
2023/01/06 12:09:31;;;;;;;2.65;0.50;;;;;;;;;;5035066;28;20066;-69
2023/01/06 12:12:20;;;;;;;1.30;0.40;;;;;;;;;;5028676;28;20040;-70
2023/01/06 12:14:47;;;;;;;1.73;0.50;;;;;;;;;;4962308;28;20052;-70
2023/01/06 12:17:23;;;;;;;0.90;0.38;;;;;;;;;;5021771;28;20064;-71
2023/01/06 12:20:05;;;;;;;1.35;0.50;;;;;;;;;;4999642;28;20163;-70
2023/01/06 12:22:38;;;;;;;0.80;0.40;;;;;;;;;;5029927;28;20103;-69
2023/01/06 12:25:06;;;;;;;1.97;0.50;;;;;;;;;;5014199;28;20828;-69
2023/01/06 12:27:35;;;;;;;2.10;0.60;;;;;;;;;;5008907;28;20291;-68
2023/01/06 12:30:05;;;;;;;1.27;0.40;;;;;;;;;;4997526;28;20046;-68
2023/01/06 12:32:38;;;;;;;1.45;0.47;;;;;;;;;;5012992;28;20064;-69
2023/01/06 12:35:05;;;;;;;2.40;0.50;;;;;;;;;;5002496;28;20037;-68
2023/01/06 12:37:35;;;;;;;1.27;0.40;;;;;;;;;;5002753;28;20038;-69
2023/01/06 12:40:13;;;;;;;1.35;0.43;;;;;;;;;;5003017;28;20436;-69
2023/01/06 12:42:58;;;;;;;1.00;0.40;;;;;;;;;;5001401;28;21376;-69
2023/01/06 12:45:37;;;;;;;1.55;0.47;;;;;;;;;;5014264;28;20052;-69
2023/01/06 12:48:11;;;;;;;1.70;0.43;;;;;;;;;;5028778;28;20037;-68
2023/01/06 12:50:40;;;;;;;1.45;0.50;;;;;;;;;;5026786;28;20903;-68
2023/01/06 12:53:07;;;;;;;1.63;0.45;;;;;;;;;;5028230;28;20430;-69
2023/01/06 12:55:39;;;;;;;0.98;0.50;;;;;;;;;;5029754;28;20039;-70
2023/01/06 12:58:11;;;;;;;1.67;0.50;;;;;;;;;;5029872;28;20041;-70
2023/01/06 13:00:50;;;;;;;1.55;0.50;;;;;;;;;;5028654;28;20409;-70
2023/01/06 13:03:20;;;;;;;1.88;0.60;;;;;;;;;;5029154;28;20041;-71
2023/01/06 13:06:05;;;;;;;1.35;0.50;;;;;;;;;;5037524;28;20059;-70
2023/01/06 13:08:32;;;;;;;1.73;0.52;;;;;;;;;;5024732;28;20132;-70
2023/01/06 13:11:07;;;;;;;2.25;0.50;;;;;;;;;;5043331;28;20044;-70
2023/01/06 13:13:40;;;;;;;1.38;0.40;;;;;;;;;;4993967;28;20052;-69
2023/01/06 13:16:24;;;;;;;2.08;0.50;;;;;;;;;;5047586;28;20042;-71
2023/01/06 13:18:56;;;;;;;2.20;0.65;;;;;;;;;;5012757;28;20886;-71
2023/01/06 13:21:27;;;;;;;1.65;0.57;;;;;;;;;;5015535;28;20037;-71
2023/01/06 13:24:19;;;;;;;1.15;0.40;;;;;;;;;;4994795;28;20052;-72
2023/01/06 13:26:53;;;;;;;2.53;0.50;;;;;;;;;;5002100;28;20146;-67
2023/01/06 13:29:32;;;;;;;2.00;0.60;;;;;;;;;;4975800;28;20667;-66
2023/01/06 13:32:21;;;;;;;3.97;0.75;;;;;;;;;;5000396;28;20045;-66
2023/01/06 13:34:51;;;;;;;1.38;0.50;;;;;;;;;;5006936;28;20047;-68
2023/01/06 13:38:01;;;;;;;2.20;0.70;;;;;;;;;;4978083;28;20138;-69
2023/01/06 13:40:30;;;;;;;1.83;0.50;;;;;;;;;;4992929;28;20056;-69
2023/01/06 13:43:03;;;;;;;1.35;0.47;;;;;;;;;;5013830;28;20460;-69
2023/01/06 13:45:30;;;;;;;;;;;;;;;;;;5015894;28;20045;-67
2023/01/06 13:47:57;;;;;;;4.00;0.60;;;;;;;;;;4992934;28;20433;-68
2023/01/06 13:50:44;;;;;;;0.90;0.40;;;;;;;;;;4990082;28;20038;-68
2023/01/06 13:53:17;;;;;;;3.13;0.60;;;;;;;;;;4929332;28;20070;-68
2023/01/06 13:55:44;;;;;;;1.00;0.40;;;;;;;;;;4934558;28;20053;-69
2023/01/06 13:58:27;;;;;;;1.40;0.50;;;;;;;;;;4942285;28;20386;-68
2023/01/06 14:00:54;;;;;;;;;;;;;;;;;;4945884;28;20118;-69
2023/01/06 14:03:23;;;;;;;1.40;0.47;;;;;;;;;;4926909;28;19918;-69
2023/01/06 14:05:50;;;;;;;1.45;0.50;;;;;;;;;;4927746;28;20050;-70
2023/01/06 14:08:19;;;;;;;1.42;0.52;;;;;;;;;;4911440;29;20381;-68
2023/01/06 14:10:48;;;;;;;1.80;0.43;;;;;;;;;;4938174;28;20043;-68
2023/01/06 14:13:23;;;;;;;3.00;0.40;;;;;;;;;;4938333;28;20624;-68
2023/01/06 14:16:08;;;;;;;;;;;;;;;;;;4944631;28;20053;-69
2023/01/06 14:18:36;;;;;;;1.08;0.43;;;;;;;;;;4946579;28;19938;-66
2023/01/06 14:21:05;;;;;;;1.48;0.47;;;;;;;;;;4949259;28;20609;-66
2023/01/06 14:23:33;;;;;;;2.55;0.40;;;;;;;;;;4930757;28;20042;-67
2023/01/06 14:26:00;;;;;;;1.02;0.40;;;;;;;;;;4978347;28;20112;-65
2023/01/06 14:28:28;;;;;;;1.52;0.47;;;;;;;;;;4987579;28;20033;-68
2023/01/06 14:31:13;;;;;;;1.08;0.45;;;;;;;;;;5007000;28;20045;-67
2023/01/06 14:33:42;;;;;;;1.08;0.40;;;;;;;;;;5021378;28;20037;-68
2023/01/06 14:36:11;;;;;;;1.13;0.40;;;;;;;;;;5023357;28;20117;-69
2023/01/06 14:38:46;;;;;;;1.92;0.50;;;;;;;;;;5027932;28;20059;-67
2023/01/06 14:41:34;;;;;;;1.88;0.45;;;;;;;;;;5042316;28;20104;-68
2023/01/06 14:44:03;;;;;;;1.42;0.47;;;;;;;;;;5034717;28;20167;-67
2023/01/06 14:46:32;;;;;;;1.05;0.50;;;;;;;;;;5040867;28;20068;-70
2023/01/06 14:49:02;;;;;;;1.17;0.50;;;;;;;;;;5042195;28;20029;-69
2023/01/06 14:51:30;;;;;;;1.23;0.50;;;;;;;;;;5042523;28;20033;-65
2023/01/06 14:54:11;;;;;;;1.55;0.50;;;;;;;;;;5043599;28;20137;-68
2023/01/06 14:56:38;;;;;;;1.23;0.40;;;;;;;;;;5044920;28;21809;-69
2023/01/06 14:59:12;;;;;;;1.98;0.60;;;;;;;;;;5044612;28;20537;-69
2023/01/06 15:01:41;;;;;;;2.00;0.60;;;;;;;;;;5026261;28;20072;-68
2023/01/06 15:04:20;;;;;;;1.38;0.50;;;;;;;;;;5019191;28;20126;-68
2023/01/06 15:06:57;;;;;;;3.47;0.68;;;;;;;;;;5031725;28;20052;-69